Airfield :
LOGIN :

Register | Disclaimer

   EN    FR    IT 

 










Legend :    VFR   Marginal VFR   IFR   Intensive IFR   Very Intensive IFR
Visi :
Ceiling :
>= 8 km
>= 3000ft
5 to 8 km
1000 to 3000 ft
1500m to 5 km
500 to 1000 ft
800 to 1500m
200 to 500 ft
< 800m
< 200 ft
Symbols :   Thunderstorms  Fog  Heavy snow  Heavy precipitations  Wind > 20 kt
SIGMETs :     Misc.  Thunderstorms  Icing  Turbulence  Mountain Waves  Volcanic Ashes







- Airport Elevation : 392 ft
- IATA code : CDG
- Download approach charts


LFPG - Paris-Aeroport Charles De Gaulle

CURRENT METAR :
  • 141430Z 24019KT 9999 -SHRA FEW023 FEW036TCU BKN053 07/03 Q0996 TEMPO 2000 TSRAGS SCT011CB BKN013

EXPIRED METARs :
  • 141400Z 24017KT 9999 -SHRA FEW020 BKN026 BKN060 07/03 Q0996 TEMPO 2000 TSRAGS SCT011CB BKN013
  • 141330Z 24018KT 9999 FEW020 BKN023 07/04 Q0997 TEMPO 2000 TSRAGS SCT011CB BKN013
  • 141300Z 23012KT 9999 FEW020 BKN023 07/04 Q0997 TEMPO 2000 TSRAGS SCT011CB BKN013
  • 141230Z 22011KT 9999 BKN023 06/04 Q0998 TEMPO 2000 TSRAGS SCT011CB BKN013
  • 141200Z 23012KT 210V280 9999 -SHRA BKN018 FEW022TCU 05/04 Q0999 NOSIG

TAF TAF LFPG
Valid from the 14 at 12:00 until the 15 at 18:00 UTC


141100Z 1412/1518 25020G35KT 9999 BKN030
PROB40
TEMPO 1412/1417 3000 TSRA SCT011CB BKN013
PROB30
TEMPO 1412/1415 2000 TSRAGS
BECMG 1419/1421 25015G25KT
PROB40
TEMPO 1502/1504 3000 SHRA SCT015TCU BKN020
BECMG 1505/1507 25010KT
PROB40
TEMPO 1510/1515 2000 TSRAGS SCT010CB BKN012 TX07/1412Z TN03/1505Z
ATIS : +33 1 48 62 10 92
No reported NOTAMs for that airfield.
2 SIGMETs reported for the Paris FIR (LFFF) :
 
Embedded thunderstorms
LFFF SIGMET 9 VALID 141330/141530 LFPW
LFFF PARIS FIR/UIR EMBD TS FCST WI N4900 W00015 - N5000 W00015 - N5115 E00200 - N5100 E00245 - N4915 E00045 - N4900 W00015 TOP FL290 MOV E 30KT NC=
Severe turbulence
LFFF SIGMET 8 VALID 141300/141500 LFPW
LFFF PARIS FIR/UIR SEV TURB OBS AT 1300Z S OF N4700 AND E OF E00330 FL160/250 STNR NC=



MET'MAP, your aeronautical weather chart ! - Copyright ORBIFLY December 2007 - Disclaimer

ORBIFLY MET'MAP TEAM :

Programming & Development : Alexandra Zaïnal
Concept & Development : Baudouin d'Aumeries
Co-Development & Prog : Marc-Olivier Méhu
Technical & hardware support : Manuel Goepfert

Contact : metmap@orbifly.com




SOURCES & CREDITS :

   NOAA